Time;durP1;ratioP1;P1;durP2;ratioP2;P2;SDS_P1;SDS_P2;PMS_P1;PMS_P2;Temp;Humidity;BMP_temperature;BMP_pressure;BME280_temperature;BME280_humidity;BME280_pressure;Samples;Min_cycle;Max_cycle;Signal;HPM_P1;HPM_P2
2022/08/26 00:02:12;;;;;;;5.68;3.50;;;;;;;;;;4979068;28;20136;-60
2022/08/26 00:04:37;;;;;;;6.78;4.10;;;;;;;;;;4982274;28;20055;-60
2022/08/26 00:07:03;;;;;;;5.57;3.70;;;;;;;;;;4984149;28;21107;-60
2022/08/26 00:09:28;;;;;;;5.03;4.32;;;;;;;;;;4984056;28;20065;-60
2022/08/26 00:11:54;;;;;;;6.30;3.97;;;;;;;;;;4980425;28;20081;-60
2022/08/26 00:14:20;;;;;;;6.13;4.07;;;;;;;;;;4980715;28;20480;-59
2022/08/26 00:16:46;;;;;;;5.28;4.00;;;;;;;;;;4982806;28;20057;-60
2022/08/26 00:19:11;;;;;;;5.90;3.97;;;;;;;;;;4980381;28;20050;-60
2022/08/26 00:21:37;;;;;;;9.50;4.60;;;;;;;;;;4984266;28;20177;-61
2022/08/26 00:24:02;;;;;;;4.60;4.05;;;;;;;;;;4975576;28;20500;-62
2022/08/26 00:26:28;;;;;;;5.00;3.92;;;;;;;;;;4981826;28;20516;-61
2022/08/26 00:28:53;;;;;;;5.38;3.88;;;;;;;;;;4985958;28;20049;-61
2022/08/26 00:31:19;;;;;;;6.80;4.13;;;;;;;;;;4974737;28;20054;-60
2022/08/26 00:33:44;;;;;;;9.55;4.47;;;;;;;;;;4978202;28;20057;-60
2022/08/26 00:36:10;;;;;;;6.10;4.25;;;;;;;;;;4982270;28;20042;-61
2022/08/26 00:38:36;;;;;;;6.00;3.83;;;;;;;;;;4980777;28;20026;-61
2022/08/26 00:41:03;;;;;;;7.45;3.90;;;;;;;;;;4977224;28;20054;-59
2022/08/26 00:43:32;;;;;;;5.68;4.00;;;;;;;;;;4980007;28;20486;-60
2022/08/26 00:46:18;;;;;;;4.28;3.67;;;;;;;;;;4975440;28;20133;-60
2022/08/26 00:48:47;;;;;;;6.85;3.60;;;;;;;;;;4978224;28;20042;-62
2022/08/26 00:51:20;;;;;;;4.70;3.20;;;;;;;;;;4982336;28;20041;-60
2022/08/26 00:53:52;;;;;;;4.20;3.40;;;;;;;;;;4978278;28;20030;-60
2022/08/26 00:56:27;;;;;;;4.47;3.30;;;;;;;;;;4981639;28;20070;-60
2022/08/26 00:58:56;;;;;;;5.35;3.67;;;;;;;;;;4981321;28;20293;-60
2022/08/26 01:01:25;;;;;;;5.43;3.60;;;;;;;;;;4981997;28;20437;-60
2022/08/26 01:03:51;;;;;;;6.35;3.85;;;;;;;;;;4979524;28;20128;-59
2022/08/26 01:06:17;;;;;;;4.25;3.30;;;;;;;;;;4985915;28;20133;-61
2022/08/26 01:08:43;;;;;;;3.60;3.15;;;;;;;;;;4974858;28;20023;-59
2022/08/26 01:11:11;;;;;;;5.53;3.33;;;;;;;;;;4981073;28;20047;-59
2022/08/26 01:13:37;;;;;;;6.63;3.60;;;;;;;;;;4978488;28;20124;-61
2022/08/26 01:16:05;;;;;;;4.30;3.33;;;;;;;;;;4986040;28;20046;-61
2022/08/26 01:18:30;;;;;;;5.13;3.60;;;;;;;;;;4977346;28;20042;-60
2022/08/26 01:21:14;;;;;;;6.00;3.63;;;;;;;;;;4983499;28;20541;-61
2022/08/26 01:23:44;;;;;;;3.83;3.30;;;;;;;;;;4974142;28;20396;-62
2022/08/26 01:26:15;;;;;;;5.03;3.10;;;;;;;;;;4981715;28;20350;-61
2022/08/26 01:28:42;;;;;;;5.43;3.35;;;;;;;;;;4981592;28;20042;-61
2022/08/26 01:31:11;;;;;;;3.92;3.40;;;;;;;;;;4983228;28;20062;-60
2022/08/26 01:33:46;;;;;;;3.92;3.25;;;;;;;;;;4983565;28;20057;-61
2022/08/26 01:36:14;;;;;;;4.40;3.33;;;;;;;;;;4981367;28;20396;-60
2022/08/26 01:38:39;;;;;;;4.00;3.25;;;;;;;;;;4980606;28;20037;-61
2022/08/26 01:41:06;;;;;;;7.82;3.42;;;;;;;;;;4983155;28;20113;-60
2022/08/26 01:43:33;;;;;;;3.97;3.30;;;;;;;;;;4985308;28;20072;-61
2022/08/26 01:46:00;;;;;;;5.50;3.35;;;;;;;;;;4976999;28;20046;-61
2022/08/26 01:48:29;;;;;;;5.65;3.33;;;;;;;;;;4980661;28;20507;-60
2022/08/26 01:50:55;;;;;;;6.47;3.40;;;;;;;;;;4982650;28;20026;-61
2022/08/26 01:53:21;;;;;;;4.53;3.47;;;;;;;;;;4982710;28;20042;-60
2022/08/26 01:55:51;;;;;;;4.78;3.47;;;;;;;;;;4983387;28;20046;-60
2022/08/26 01:58:22;;;;;;;4.38;3.75;;;;;;;;;;4979032;28;20391;-60
2022/08/26 02:00:48;;;;;;;8.68;3.50;;;;;;;;;;4980586;28;20058;-60
2022/08/26 02:03:17;;;;;;;5.07;3.25;;;;;;;;;;4980282;28;20035;-61
2022/08/26 02:05:53;;;;;;;5.72;3.78;;;;;;;;;;4984512;28;20045;-60
2022/08/26 02:08:23;;;;;;;5.88;3.58;;;;;;;;;;4975937;28;20101;-60
2022/08/26 02:10:49;;;;;;;4.57;3.70;;;;;;;;;;4981079;28;20043;-60
2022/08/26 02:13:14;;;;;;;5.47;3.65;;;;;;;;;;4981071;28;20137;-61
2022/08/26 02:15:43;;;;;;;4.47;3.88;;;;;;;;;;4982387;28;20077;-60
2022/08/26 02:18:09;;;;;;;4.43;3.80;;;;;;;;;;4981078;28;20037;-61
2022/08/26 02:20:34;;;;;;;7.18;4.15;;;;;;;;;;4980212;28;20038;-60
2022/08/26 02:23:00;;;;;;;7.68;3.60;;;;;;;;;;4982077;28;20046;-63
2022/08/26 02:25:54;;;;;;;7.20;4.15;;;;;;;;;;4980823;28;20054;-61
2022/08/26 02:28:19;;;;;;;5.15;4.05;;;;;;;;;;4982973;28;20053;-61
2022/08/26 02:30:46;;;;;;;5.97;3.78;;;;;;;;;;4982373;28;20073;-60
2022/08/26 02:33:12;;;;;;;6.72;3.88;;;;;;;;;;4978314;28;20034;-60
2022/08/26 02:35:38;;;;;;;8.80;4.05;;;;;;;;;;4981072;28;20044;-60
2022/08/26 02:38:05;;;;;;;7.53;3.95;;;;;;;;;;4983092;28;20361;-64
2022/08/26 02:40:36;;;;;;;4.47;3.95;;;;;;;;;;4983507;28;20416;-61
2022/08/26 02:43:03;;;;;;;5.45;4.32;;;;;;;;;;4981729;28;20283;-60
2022/08/26 02:45:29;;;;;;;6.35;4.03;;;;;;;;;;4986517;28;20101;-60
2022/08/26 02:47:57;;;;;;;5.38;3.55;;;;;;;;;;4983058;28;20034;-60
2022/08/26 02:50:24;;;;;;;10.20;4.25;;;;;;;;;;4983557;28;20112;-60
2022/08/26 02:52:50;;;;;;;9.35;4.00;;;;;;;;;;4982391;28;20050;-61
2022/08/26 02:55:16;;;;;;;6.45;4.43;;;;;;;;;;4982021;28;20051;-61
2022/08/26 02:57:42;;;;;;;5.97;4.40;;;;;;;;;;4981985;28;20051;-60
2022/08/26 03:00:10;;;;;;;8.82;4.68;;;;;;;;;;4986864;28;20046;-60
2022/08/26 03:02:36;;;;;;;5.50;4.30;;;;;;;;;;4981698;28;20069;-60
2022/08/26 03:05:02;;;;;;;5.90;4.60;;;;;;;;;;4981421;28;20057;-60
2022/08/26 03:07:28;;;;;;;6.90;4.55;;;;;;;;;;4984705;28;20050;-61
2022/08/26 03:09:54;;;;;;;5.75;4.57;;;;;;;;;;4982851;28;20058;-60
2022/08/26 03:12:19;;;;;;;9.27;5.30;;;;;;;;;;4977875;28;20035;-61
2022/08/26 03:14:46;;;;;;;6.80;4.55;;;;;;;;;;4981864;28;20132;-61
2022/08/26 03:17:12;;;;;;;12.43;5.68;;;;;;;;;;4981649;28;20096;-62
2022/08/26 03:19:37;;;;;;;6.90;5.07;;;;;;;;;;4982949;28;20459;-61
2022/08/26 03:22:03;;;;;;;9.60;5.15;;;;;;;;;;4984768;28;20058;-61
2022/08/26 03:24:29;;;;;;;5.97;5.38;;;;;;;;;;4976761;28;20050;-61
2022/08/26 03:26:55;;;;;;;6.53;5.00;;;;;;;;;;4983713;28;20049;-62
2022/08/26 03:32:06;;;;;;;8.63;4.80;;;;;;;;;;4981754;28;20058;-61
2022/08/26 03:34:31;;;;;;;8.13;5.13;;;;;;;;;;4978110;28;20050;-61
2022/08/26 03:36:56;;;;;;;8.75;5.28;;;;;;;;;;4981286;28;20340;-60
2022/08/26 03:39:22;;;;;;;9.02;4.90;;;;;;;;;;4983737;28;20102;-60
2022/08/26 03:41:47;;;;;;;8.02;5.50;;;;;;;;;;4985149;28;20046;-59
2022/08/26 03:44:13;;;;;;;8.75;5.05;;;;;;;;;;4977990;28;20662;-59
2022/08/26 03:46:39;;;;;;;8.30;4.65;;;;;;;;;;4974648;28;20046;-60
2022/08/26 03:49:05;;;;;;;4.68;4.25;;;;;;;;;;4975587;28;20059;-61
2022/08/26 03:51:32;;;;;;;6.60;4.78;;;;;;;;;;4981538;28;20089;-60
2022/08/26 03:53:59;;;;;;;7.28;4.88;;;;;;;;;;4978010;28;20042;-60
2022/08/26 03:56:26;;;;;;;10.70;4.95;;;;;;;;;;4981294;28;20032;-61
2022/08/26 03:58:52;;;;;;;8.45;5.50;;;;;;;;;;4979475;28;20058;-61
2022/08/26 04:01:17;;;;;;;7.97;4.70;;;;;;;;;;4977385;28;20694;-59
2022/08/26 04:03:58;;;;;;;6.95;4.90;;;;;;;;;;4974162;28;20047;-59
2022/08/26 04:06:33;;;;;;;6.55;4.85;;;;;;;;;;4982767;28;20400;-61
2022/08/26 04:09:04;;;;;;;9.93;5.00;;;;;;;;;;4983320;28;20125;-59
2022/08/26 04:11:30;;;;;;;8.05;5.18;;;;;;;;;;4982950;28;20092;-60
2022/08/26 04:14:00;;;;;;;7.05;4.57;;;;;;;;;;4975522;28;20051;-59
2022/08/26 04:16:28;;;;;;;10.65;4.85;;;;;;;;;;4979592;28;20737;-62
2022/08/26 04:18:54;;;;;;;8.13;3.97;;;;;;;;;;4977442;28;20046;-61
2022/08/26 04:21:19;;;;;;;7.38;4.10;;;;;;;;;;4979716;28;20038;-60
2022/08/26 04:23:45;;;;;;;8.95;4.53;;;;;;;;;;4983103;28;20022;-61
2022/08/26 04:26:10;;;;;;;15.20;5.35;;;;;;;;;;4975708;28;20054;-60
2022/08/26 04:28:36;;;;;;;6.78;4.28;;;;;;;;;;4975888;28;20042;-61
2022/08/26 04:31:01;;;;;;;7.30;4.50;;;;;;;;;;4974797;28;20143;-60
2022/08/26 04:33:27;;;;;;;8.32;4.07;;;;;;;;;;4976969;28;20190;-60
2022/08/26 04:36:04;;;;;;;6.43;4.30;;;;;;;;;;4979928;28;20100;-61
2022/08/26 04:38:30;;;;;;;7.18;4.13;;;;;;;;;;4976596;28;20057;-61
2022/08/26 04:40:56;;;;;;;10.20;4.65;;;;;;;;;;4977680;28;20050;-59
2022/08/26 04:43:21;;;;;;;6.75;3.95;;;;;;;;;;4982851;28;20054;-59
2022/08/26 04:45:47;;;;;;;10.48;4.25;;;;;;;;;;4977350;28;20045;-60
2022/08/26 04:48:12;;;;;;;11.80;4.22;;;;;;;;;;4974038;28;20092;-62
2022/08/26 04:50:37;;;;;;;12.00;4.45;;;;;;;;;;4974973;28;20093;-61
2022/08/26 04:53:03;;;;;;;9.02;3.85;;;;;;;;;;4978854;28;20046;-60
2022/08/26 04:55:29;;;;;;;8.00;4.35;;;;;;;;;;4981404;28;20523;-61
2022/08/26 04:57:55;;;;;;;8.07;4.10;;;;;;;;;;4977295;28;20058;-65
2022/08/26 05:00:22;;;;;;;7.35;4.40;;;;;;;;;;4979402;28;20065;-60
2022/08/26 05:02:47;;;;;;;9.18;4.07;;;;;;;;;;4977998;28;20092;-60
2022/08/26 05:05:12;;;;;;;8.23;4.13;;;;;;;;;;4979717;28;20054;-60
2022/08/26 05:07:39;;;;;;;8.55;4.05;;;;;;;;;;4983533;28;20468;-60
2022/08/26 05:10:05;;;;;;;5.15;3.85;;;;;;;;;;4976141;28;20050;-76
2022/08/26 05:12:31;;;;;;;8.07;3.75;;;;;;;;;;4979281;28;20396;-76
2022/08/26 05:14:57;;;;;;;5.47;3.88;;;;;;;;;;4979912;28;20030;-74
2022/08/26 05:17:23;;;;;;;8.13;4.60;;;;;;;;;;4974862;28;20050;-74
2022/08/26 05:19:49;;;;;;;7.35;4.10;;;;;;;;;;4974338;28;20055;-76
2022/08/26 05:22:16;;;;;;;5.38;3.78;;;;;;;;;;4982515;28;20865;-75
2022/08/26 05:24:42;;;;;;;8.80;4.28;;;;;;;;;;4977076;28;20051;-76
2022/08/26 05:27:08;;;;;;;7.85;4.60;;;;;;;;;;4978240;28;20057;-76
2022/08/26 05:29:33;;;;;;;7.20;4.80;;;;;;;;;;4995321;28;20050;-75
2022/08/26 05:32:00;;;;;;;9.30;4.88;;;;;;;;;;4979886;28;20061;-76
2022/08/26 05:34:26;;;;;;;7.70;5.05;;;;;;;;;;4977596;28;20043;-75
2022/08/26 05:36:51;;;;;;;11.35;4.72;;;;;;;;;;4980665;28;20093;-75
2022/08/26 05:39:17;;;;;;;7.93;5.18;;;;;;;;;;4980444;28;20030;-75
2022/08/26 05:41:42;;;;;;;9.15;5.50;;;;;;;;;;4981529;28;20034;-75
2022/08/26 05:44:11;;;;;;;10.25;5.82;;;;;;;;;;4983065;28;20089;-75
2022/08/26 05:46:38;;;;;;;7.20;5.20;;;;;;;;;;4976237;28;20506;-74
2022/08/26 05:49:05;;;;;;;6.75;5.50;;;;;;;;;;4973775;28;20051;-74
2022/08/26 05:51:31;;;;;;;11.43;5.53;;;;;;;;;;4976132;28;20058;-75
2022/08/26 05:53:59;;;;;;;9.90;5.85;;;;;;;;;;4976402;28;20043;-74
2022/08/26 05:56:26;;;;;;;7.85;5.90;;;;;;;;;;4972917;28;20062;-74
2022/08/26 05:58:52;;;;;;;10.02;5.97;;;;;;;;;;4982295;28;20058;-76
2022/08/26 06:01:20;;;;;;;32.33;7.85;;;;;;;;;;4980234;28;20116;-75
2022/08/26 06:03:50;;;;;;;17.30;7.28;;;;;;;;;;4975106;28;20042;-77
2022/08/26 06:06:22;;;;;;;10.48;6.38;;;;;;;;;;4980154;28;20170;-78
2022/08/26 06:08:49;;;;;;;13.50;6.65;;;;;;;;;;4979214;28;20381;-75
2022/08/26 06:11:17;;;;;;;12.00;6.22;;;;;;;;;;4979421;28;20403;-75
2022/08/26 06:13:43;;;;;;;10.98;7.38;;;;;;;;;;4977870;28;20082;-75
2022/08/26 06:16:12;;;;;;;14.57;8.90;;;;;;;;;;4978121;28;20497;-74
2022/08/26 06:18:40;;;;;;;11.70;8.35;;;;;;;;;;4980205;28;20054;-68
2022/08/26 06:21:29;;;;;;;14.45;8.50;;;;;;;;;;4979184;28;20038;-70
2022/08/26 06:26:49;;;;;;;12.15;9.07;;;;;;;;;;4980146;28;20149;-69
2022/08/26 06:29:14;;;;;;;11.00;8.30;;;;;;;;;;4983081;28;20054;-69
2022/08/26 06:31:40;;;;;;;14.95;8.15;;;;;;;;;;4984093;28;20046;-70
2022/08/26 06:34:05;;;;;;;13.07;8.57;;;;;;;;;;4981956;28;20105;-69
2022/08/26 06:36:33;;;;;;;10.85;8.35;;;;;;;;;;4984347;28;20116;-69
2022/08/26 06:39:03;;;;;;;17.17;8.40;;;;;;;;;;4979703;28;20034;-68
2022/08/26 06:41:32;;;;;;;10.95;8.45;;;;;;;;;;4984036;28;20034;-69
2022/08/26 06:43:57;;;;;;;12.20;9.05;;;;;;;;;;4980176;28;20489;-67
2022/08/26 06:46:23;;;;;;;30.98;9.68;;;;;;;;;;4981173;28;20092;-69
2022/08/26 06:48:49;;;;;;;14.18;8.18;;;;;;;;;;4977369;28;20121;-68
2022/08/26 06:51:18;;;;;;;15.63;8.77;;;;;;;;;;4975254;28;20037;-65
2022/08/26 06:53:45;;;;;;;10.65;8.68;;;;;;;;;;4982723;28;20084;-64
2022/08/26 06:56:12;;;;;;;15.10;8.65;;;;;;;;;;4982777;28;20078;-65
2022/08/26 06:58:39;;;;;;;14.73;8.98;;;;;;;;;;4980826;28;20051;-66
2022/08/26 07:01:14;;;;;;;14.45;8.93;;;;;;;;;;4980782;28;20061;-65
2022/08/26 07:03:39;;;;;;;18.90;10.85;;;;;;;;;;4980695;28;20042;-64
2022/08/26 07:06:05;;;;;;;17.02;10.88;;;;;;;;;;4977270;28;20046;-65
2022/08/26 07:08:30;;;;;;;19.08;11.57;;;;;;;;;;4965086;28;20051;-64
2022/08/26 07:10:56;;;;;;;15.52;11.25;;;;;;;;;;4979966;28;20501;-64
2022/08/26 07:13:21;;;;;;;16.70;11.40;;;;;;;;;;4982223;28;20066;-66
2022/08/26 07:15:47;;;;;;;16.10;11.48;;;;;;;;;;4980131;28;20062;-72
2022/08/26 07:18:13;;;;;;;13.93;10.80;;;;;;;;;;4981574;28;20030;-68
2022/08/26 07:20:39;;;;;;;14.90;11.63;;;;;;;;;;4979373;28;20040;-66
2022/08/26 07:23:08;;;;;;;18.10;11.63;;;;;;;;;;4980164;28;20054;-65
2022/08/26 07:25:37;;;;;;;17.52;12.18;;;;;;;;;;4977830;28;20453;-66
2022/08/26 07:28:03;;;;;;;18.40;12.35;;;;;;;;;;4980084;28;20042;-65
2022/08/26 07:30:28;;;;;;;17.88;11.27;;;;;;;;;;4979315;28;21084;-65
2022/08/26 07:32:56;;;;;;;21.35;12.48;;;;;;;;;;4981330;28;20029;-65
2022/08/26 07:35:21;;;;;;;22.23;12.23;;;;;;;;;;4983585;28;20077;-66
2022/08/26 07:37:47;;;;;;;21.10;12.27;;;;;;;;;;4979694;28;20049;-65
2022/08/26 07:40:12;;;;;;;19.60;12.32;;;;;;;;;;4979042;28;20042;-68
2022/08/26 07:42:38;;;;;;;18.70;12.35;;;;;;;;;;4978457;28;20433;-64
2022/08/26 07:45:04;;;;;;;16.05;10.60;;;;;;;;;;4978782;28;20039;-65
2022/08/26 07:47:30;;;;;;;24.25;12.25;;;;;;;;;;4975241;28;20054;-65
2022/08/26 07:49:56;;;;;;;18.77;12.82;;;;;;;;;;4978820;28;20499;-65
2022/08/26 07:52:23;;;;;;;23.35;13.20;;;;;;;;;;4977709;28;20105;-64
2022/08/26 07:54:48;;;;;;;20.95;12.95;;;;;;;;;;4974584;28;20046;-65
2022/08/26 07:57:16;;;;;;;21.20;11.85;;;;;;;;;;4980624;28;20085;-65
2022/08/26 07:59:42;;;;;;;20.77;11.63;;;;;;;;;;4983150;28;20425;-65
2022/08/26 08:02:07;;;;;;;17.95;11.93;;;;;;;;;;4985083;28;20092;-65
2022/08/26 08:04:33;;;;;;;18.40;13.35;;;;;;;;;;4980796;28;20042;-65
2022/08/26 08:06:58;;;;;;;19.38;13.63;;;;;;;;;;4979987;28;20173;-65
2022/08/26 08:09:24;;;;;;;22.02;14.55;;;;;;;;;;4974438;28;20057;-66
2022/08/26 08:11:51;;;;;;;23.98;14.50;;;;;;;;;;4979868;28;20400;-64
2022/08/26 08:14:17;;;;;;;19.85;14.15;;;;;;;;;;4975136;28;20046;-64
2022/08/26 08:16:42;;;;;;;24.15;14.18;;;;;;;;;;4973695;28;20105;-64
2022/08/26 08:19:08;;;;;;;20.23;13.68;;;;;;;;;;4974099;28;20059;-65
2022/08/26 08:21:33;;;;;;;18.90;13.50;;;;;;;;;;4975184;28;20097;-65
2022/08/26 08:23:59;;;;;;;23.95;12.98;;;;;;;;;;4974344;28;20710;-65
2022/08/26 08:26:25;;;;;;;22.20;13.57;;;;;;;;;;4978639;28;20046;-65
2022/08/26 08:28:54;;;;;;;19.75;14.00;;;;;;;;;;4977668;28;20133;-66
2022/08/26 08:31:21;;;;;;;23.27;13.80;;;;;;;;;;4975634;28;20081;-66
2022/08/26 08:33:46;;;;;;;20.80;12.65;;;;;;;;;;4982065;28;20050;-66
2022/08/26 08:36:14;;;;;;;19.38;14.20;;;;;;;;;;4980151;28;20042;-65
2022/08/26 08:38:39;;;;;;;19.45;13.43;;;;;;;;;;4977931;28;20042;-65
2022/08/26 08:41:05;;;;;;;19.90;12.93;;;;;;;;;;4972762;28;20058;-65
2022/08/26 08:43:43;;;;;;;19.88;15.15;;;;;;;;;;4970731;28;20519;-64
2022/08/26 08:46:12;;;;;;;30.73;17.50;;;;;;;;;;4968018;28;20046;-64
2022/08/26 08:48:42;;;;;;;24.92;16.50;;;;;;;;;;4971255;28;20042;-67
2022/08/26 08:51:33;;;;;;;22.67;15.90;;;;;;;;;;4972862;28;20030;-65
2022/08/26 08:54:00;;;;;;;27.33;15.68;;;;;;;;;;4975587;28;20058;-67
2022/08/26 08:56:29;;;;;;;25.83;15.68;;;;;;;;;;4972251;28;20061;-66
2022/08/26 08:59:15;;;;;;;22.30;16.70;;;;;;;;;;4971866;28;20050;-64
2022/08/26 09:01:50;;;;;;;27.95;15.00;;;;;;;;;;4975197;28;20080;-65
2022/08/26 09:04:51;;;;;;;26.33;14.93;;;;;;;;;;4969742;28;20563;-65
2022/08/26 09:07:22;;;;;;;22.25;15.07;;;;;;;;;;4968886;28;20058;-65
2022/08/26 09:09:56;;;;;;;21.13;15.15;;;;;;;;;;4972626;28;20389;-65
2022/08/26 09:12:24;;;;;;;22.58;15.93;;;;;;;;;;4973661;28;20727;-64
2022/08/26 09:14:55;;;;;;;25.15;16.58;;;;;;;;;;4984156;28;20073;-63
2022/08/26 09:17:34;;;;;;;23.75;16.35;;;;;;;;;;4980018;28;20108;-64
2022/08/26 09:20:35;;;;;;;26.50;16.65;;;;;;;;;;4982292;28;20062;-65
2022/08/26 09:23:00;;;;;;;22.90;16.33;;;;;;;;;;4950033;28;20058;-65
2022/08/26 09:25:26;;;;;;;23.35;17.30;;;;;;;;;;4982822;28;20042;-65
2022/08/26 09:27:52;;;;;;;23.58;16.88;;;;;;;;;;4979033;28;20061;-67
2022/08/26 09:30:24;;;;;;;26.52;16.88;;;;;;;;;;4982387;28;20460;-66
2022/08/26 09:33:00;;;;;;;21.87;16.47;;;;;;;;;;4981124;28;20030;-66
2022/08/26 09:35:34;;;;;;;25.27;17.58;;;;;;;;;;4984031;28;20042;-67
2022/08/26 09:38:00;;;;;;;25.73;17.30;;;;;;;;;;4974853;28;20069;-66
2022/08/26 09:40:31;;;;;;;24.35;17.98;;;;;;;;;;4980929;28;20046;-66
2022/08/26 09:43:18;;;;;;;22.88;16.98;;;;;;;;;;4978625;28;20554;-67
2022/08/26 09:45:46;;;;;;;25.80;16.88;;;;;;;;;;4970491;28;20096;-67
2022/08/26 09:48:31;;;;;;;27.95;17.70;;;;;;;;;;4975071;28;20043;-67
2022/08/26 09:51:01;;;;;;;23.02;17.25;;;;;;;;;;4977359;28;20034;-68
2022/08/26 09:53:31;;;;;;;18.50;15.07;;;;;;;;;;4975143;28;20072;-68
2022/08/26 09:56:17;;;;;;;19.40;14.95;;;;;;;;;;4984856;28;20043;-67
2022/08/26 09:58:46;;;;;;;19.98;14.68;;;;;;;;;;4984902;28;20496;-66
2022/08/26 10:01:34;;;;;;;22.05;13.70;;;;;;;;;;4979906;28;20495;-62
2022/08/26 10:04:13;;;;;;;17.48;13.50;;;;;;;;;;4979532;28;20109;-62
2022/08/26 10:06:57;;;;;;;18.80;14.68;;;;;;;;;;4976570;28;20145;-62
2022/08/26 10:09:24;;;;;;;18.60;14.82;;;;;;;;;;4970287;28;20038;-62
2022/08/26 10:11:54;;;;;;;19.52;14.30;;;;;;;;;;4981745;28;20635;-62
2022/08/26 10:14:31;;;;;;;17.10;12.63;;;;;;;;;;4987033;28;20046;-62
2022/08/26 10:17:26;;;;;;;13.18;10.95;;;;;;;;;;4978920;28;20046;-63
2022/08/26 10:20:15;;;;;;;17.10;12.05;;;;;;;;;;4986255;28;20134;-64
2022/08/26 10:22:59;;;;;;;18.15;12.10;;;;;;;;;;4980140;28;20380;-65
2022/08/26 10:25:33;;;;;;;14.73;12.43;;;;;;;;;;4980004;28;20046;-66
2022/08/26 10:28:04;;;;;;;18.40;11.13;;;;;;;;;;4985982;28;20400;-67
2022/08/26 10:30:43;;;;;;;14.50;11.30;;;;;;;;;;4983962;28;20519;-66
2022/08/26 10:33:12;;;;;;;16.10;10.60;;;;;;;;;;4986561;28;20046;-68
2022/08/26 10:35:54;;;;;;;13.27;10.90;;;;;;;;;;4986052;28;20030;-66
2022/08/26 10:38:30;;;;;;;16.88;10.85;;;;;;;;;;4984385;28;20065;-67
2022/08/26 10:41:14;;;;;;;16.23;10.55;;;;;;;;;;4984664;28;20047;-65
2022/08/26 10:43:41;;;;;;;11.68;9.93;;;;;;;;;;4982396;28;20085;-65
2022/08/26 10:46:19;;;;;;;17.15;11.15;;;;;;;;;;4976167;28;20098;-63
2022/08/26 10:48:56;;;;;;;14.90;11.48;;;;;;;;;;4978127;28;20073;-64
2022/08/26 10:51:34;;;;;;;15.30;10.98;;;;;;;;;;4980535;28;20386;-65
2022/08/26 10:54:23;;;;;;;13.48;11.07;;;;;;;;;;4977337;28;20046;-63
2022/08/26 10:57:07;;;;;;;13.15;10.40;;;;;;;;;;4980602;28;20058;-63
2022/08/26 10:59:35;;;;;;;13.70;10.30;;;;;;;;;;4979875;28;20058;-62
2022/08/26 11:02:19;;;;;;;12.60;10.52;;;;;;;;;;4983003;28;20120;-62
2022/08/26 11:05:01;;;;;;;20.65;11.10;;;;;;;;;;4979328;28;20097;-60
2022/08/26 11:07:33;;;;;;;21.08;10.75;;;;;;;;;;4978462;28;20054;-63
2022/08/26 11:10:07;;;;;;;19.15;11.23;;;;;;;;;;4983746;28;20524;-65
2022/08/26 11:12:35;;;;;;;20.27;11.13;;;;;;;;;;4981902;28;20046;-65
2022/08/26 11:15:13;;;;;;;17.65;11.52;;;;;;;;;;4984549;28;20031;-67
2022/08/26 11:17:44;;;;;;;19.13;11.48;;;;;;;;;;4983099;28;20050;-65
2022/08/26 11:20:33;;;;;;;20.42;11.13;;;;;;;;;;4982798;28;20483;-67
2022/08/26 11:23:19;;;;;;;21.05;10.70;;;;;;;;;;4979512;28;20058;-67
2022/08/26 11:26:15;;;;;;;16.58;11.35;;;;;;;;;;4981651;28;20072;-62
2022/08/26 11:28:42;;;;;;;27.55;10.82;;;;;;;;;;4974911;28;20050;-62
2022/08/26 11:31:25;;;;;;;18.00;11.07;;;;;;;;;;4983637;28;20046;-62
2022/08/26 11:33:55;;;;;;;16.80;11.48;;;;;;;;;;4981589;28;20054;-63
2022/08/26 11:36:44;;;;;;;15.73;12.52;;;;;;;;;;4980326;28;20034;-63
2022/08/26 11:39:49;;;;;;;16.45;11.48;;;;;;;;;;4982083;28;20036;-61
2022/08/26 11:42:45;;;;;;;18.00;11.20;;;;;;;;;;4977190;28;20113;-62
2022/08/26 11:45:32;;;;;;;16.90;11.70;;;;;;;;;;4980416;28;20038;-63
2022/08/26 11:48:22;;;;;;;14.70;11.57;;;;;;;;;;4974717;28;20057;-64
2022/08/26 11:51:06;;;;;;;17.98;13.00;;;;;;;;;;4982557;28;20097;-63
2022/08/26 11:53:35;;;;;;;19.00;13.45;;;;;;;;;;4981809;28;20096;-63
2022/08/26 11:56:24;;;;;;;18.02;12.88;;;;;;;;;;4979078;28;20061;-63
2022/08/26 11:58:54;;;;;;;15.27;11.93;;;;;;;;;;4973708;28;20122;-64
2022/08/26 12:01:29;;;;;;;15.30;12.60;;;;;;;;;;4978469;28;20049;-63
2022/08/26 12:03:56;;;;;;;15.73;13.40;;;;;;;;;;4975229;28;20137;-63
2022/08/26 12:06:44;;;;;;;16.58;13.00;;;;;;;;;;4983265;28;20054;-64
2022/08/26 12:09:19;;;;;;;14.80;13.38;;;;;;;;;;4975789;28;20027;-64
2022/08/26 12:11:44;;;;;;;14.57;12.45;;;;;;;;;;4964809;28;20050;-64
2022/08/26 12:14:20;;;;;;;18.85;13.13;;;;;;;;;;4974617;28;20050;-64
2022/08/26 12:16:46;;;;;;;16.23;13.23;;;;;;;;;;4973796;28;20050;-65
2022/08/26 12:19:32;;;;;;;14.80;12.80;;;;;;;;;;4979491;28;20553;-64
2022/08/26 12:22:03;;;;;;;16.83;12.52;;;;;;;;;;4983579;28;20510;-63
2022/08/26 12:24:28;;;;;;;17.08;12.85;;;;;;;;;;4977862;28;20035;-64
2022/08/26 12:27:15;;;;;;;16.70;13.25;;;;;;;;;;4980191;28;20048;-65
2022/08/26 12:29:41;;;;;;;17.95;14.27;;;;;;;;;;4972149;28;20042;-65
2022/08/26 12:32:13;;;;;;;18.63;15.23;;;;;;;;;;4979623;28;20062;-65
2022/08/26 12:34:44;;;;;;;20.02;16.60;;;;;;;;;;4983880;28;20034;-65
2022/08/26 12:37:11;;;;;;;20.25;16.48;;;;;;;;;;4983290;28;20121;-64
2022/08/26 12:39:40;;;;;;;24.85;16.63;;;;;;;;;;4984124;28;20042;-64
2022/08/26 12:42:11;;;;;;;18.10;14.90;;;;;;;;;;4982730;28;20057;-65
2022/08/26 12:45:04;;;;;;;23.75;15.85;;;;;;;;;;4979587;28;20082;-65
2022/08/26 12:47:38;;;;;;;22.52;14.93;;;;;;;;;;4975133;28;20078;-65
2022/08/26 12:50:07;;;;;;;21.60;14.85;;;;;;;;;;4977811;28;20145;-62
2022/08/26 12:52:49;;;;;;;19.52;14.30;;;;;;;;;;4977146;28;20034;-61
2022/08/26 12:55:34;;;;;;;18.30;14.13;;;;;;;;;;4980119;28;20046;-63
2022/08/26 12:58:30;;;;;;;21.00;14.45;;;;;;;;;;4978994;28;20467;-64
2022/08/26 13:01:05;;;;;;;20.10;14.73;;;;;;;;;;4965544;28;20042;-65
2022/08/26 13:03:33;;;;;;;19.23;13.90;;;;;;;;;;4980227;28;20462;-64
2022/08/26 13:06:20;;;;;;;22.95;14.88;;;;;;;;;;4982668;28;20600;-65
2022/08/26 13:08:48;;;;;;;19.02;14.05;;;;;;;;;;4978772;28;20058;-63
2022/08/26 13:11:17;;;;;;;15.55;13.95;;;;;;;;;;4976702;28;20501;-63
2022/08/26 13:13:44;;;;;;;21.25;13.70;;;;;;;;;;4974649;28;20041;-64
2022/08/26 13:16:10;;;;;;;15.75;13.45;;;;;;;;;;4980441;28;20034;-65
2022/08/26 13:18:35;;;;;;;20.65;13.95;;;;;;;;;;4978567;28;20508;-64
2022/08/26 13:21:27;;;;;;;20.92;14.30;;;;;;;;;;4980955;28;20050;-64
2022/08/26 13:23:52;;;;;;;17.52;14.70;;;;;;;;;;4978491;28;20050;-62
2022/08/26 13:26:19;;;;;;;19.50;13.98;;;;;;;;;;4977155;28;20449;-63
2022/08/26 13:28:45;;;;;;;18.45;13.82;;;;;;;;;;4982352;28;20503;-64
2022/08/26 13:31:12;;;;;;;18.90;13.60;;;;;;;;;;4982095;28;20130;-62
2022/08/26 13:33:37;;;;;;;15.93;13.25;;;;;;;;;;4986729;28;20081;-63
2022/08/26 13:36:03;;;;;;;17.67;13.80;;;;;;;;;;4983572;28;20532;-62
2022/08/26 13:38:29;;;;;;;19.65;13.77;;;;;;;;;;4982395;28;20051;-64
2022/08/26 13:40:58;;;;;;;18.30;13.73;;;;;;;;;;4987388;28;20113;-63
2022/08/26 13:43:27;;;;;;;15.50;13.07;;;;;;;;;;4988222;28;20030;-63
2022/08/26 13:45:52;;;;;;;15.45;12.85;;;;;;;;;;4983170;28;20130;-62
2022/08/26 13:48:18;;;;;;;15.43;12.02;;;;;;;;;;4986860;28;20062;-63
2022/08/26 13:50:45;;;;;;;15.00;12.00;;;;;;;;;;4985410;28;20062;-64
2022/08/26 13:53:14;;;;;;;13.55;11.68;;;;;;;;;;4982173;28;20059;-63
2022/08/26 13:55:41;;;;;;;13.70;11.55;;;;;;;;;;4982564;28;20046;-63
2022/08/26 13:58:07;;;;;;;16.70;11.77;;;;;;;;;;4983214;28;20042;-65
2022/08/26 14:00:33;;;;;;;14.18;12.10;;;;;;;;;;4984848;28;20053;-65
2022/08/26 14:02:59;;;;;;;15.60;11.95;;;;;;;;;;4984165;28;20053;-62
2022/08/26 14:05:25;;;;;;;17.92;11.95;;;;;;;;;;4986163;28;20507;-64
2022/08/26 14:07:51;;;;;;;22.08;11.85;;;;;;;;;;4983102;28;20096;-65
2022/08/26 14:10:17;;;;;;;18.25;11.38;;;;;;;;;;4984718;28;20468;-68
2022/08/26 14:12:44;;;;;;;18.15;11.73;;;;;;;;;;4980809;28;20129;-63
2022/08/26 14:15:11;;;;;;;18.38;11.45;;;;;;;;;;4981748;28;20051;-66
2022/08/26 14:17:37;;;;;;;15.63;11.10;;;;;;;;;;4981148;28;20043;-62
2022/08/26 14:20:04;;;;;;;14.45;11.07;;;;;;;;;;4984495;28;20076;-62
2022/08/26 14:22:31;;;;;;;19.80;10.82;;;;;;;;;;4974890;28;20046;-61
2022/08/26 14:24:57;;;;;;;18.02;11.45;;;;;;;;;;4983117;28;20070;-63
2022/08/26 14:27:24;;;;;;;18.73;12.43;;;;;;;;;;4977331;28;20043;-63
2022/08/26 14:29:49;;;;;;;18.63;13.13;;;;;;;;;;4983219;28;20055;-62
2022/08/26 14:32:24;;;;;;;19.45;14.18;;;;;;;;;;4984169;28;20058;-63
2022/08/26 14:34:50;;;;;;;17.95;14.20;;;;;;;;;;4985247;28;20030;-63
2022/08/26 14:37:16;;;;;;;22.17;14.07;;;;;;;;;;4980631;28;20077;-65
2022/08/26 14:39:43;;;;;;;19.15;14.13;;;;;;;;;;4982182;28;20503;-65
2022/08/26 14:42:09;;;;;;;19.85;14.25;;;;;;;;;;4980474;28;20050;-63
2022/08/26 14:44:34;;;;;;;19.95;14.98;;;;;;;;;;4982456;28;20050;-63
2022/08/26 14:47:03;;;;;;;20.95;15.63;;;;;;;;;;4981657;28;20419;-63
2022/08/26 14:49:29;;;;;;;20.08;14.82;;;;;;;;;;4986586;28;20045;-63
2022/08/26 14:51:55;;;;;;;18.08;14.52;;;;;;;;;;4981524;28;20049;-66